Time;durP1;ratioP1;P1;durP2;ratioP2;P2;SDS_P1;SDS_P2;PMS_P1;PMS_P2;Temp;Humidity;BMP_temperature;BMP_pressure;BME280_temperature;BME280_humidity;BME280_pressure;Samples;Min_cycle;Max_cycle;Signal;HPM_P1;HPM_P2
2022/11/21 00:00:16;;;;;;;4.33;1.53;;;;;;;19.40;57.41;99607.34;5071550;28;20261;-66
2022/11/21 00:02:42;;;;;;;4.53;1.60;;;;;;;19.39;57.58;99602.03;5053397;28;20627;-65
2022/11/21 00:05:07;;;;;;;5.37;1.50;;;;;;;19.38;57.63;99597.53;5055562;28;20195;-65
2022/11/21 00:07:33;;;;;;;4.63;1.53;;;;;;;19.41;57.54;99591.81;5056655;28;20265;-65
2022/11/21 00:09:58;;;;;;;3.90;1.40;;;;;;;19.40;57.55;99595.91;5056762;28;20170;-66
2022/11/21 00:12:24;;;;;;;4.83;1.73;;;;;;;19.41;57.94;99603.25;5091931;28;20228;-65
2022/11/21 00:14:49;;;;;;;5.70;1.33;;;;;;;19.41;57.82;99619.63;5092194;28;20178;-65
2022/11/21 00:17:15;;;;;;;8.43;2.13;;;;;;;19.42;57.74;99609.81;5074000;28;20173;-66
2022/11/21 00:19:41;;;;;;;10.67;1.80;;;;;;;19.39;57.82;99599.16;5074045;28;20182;-65
2022/11/21 00:22:06;;;;;;;6.90;1.60;;;;;;;19.40;57.91;99595.06;5074146;28;20203;-65
2022/11/21 00:24:31;;;;;;;7.23;1.43;;;;;;;19.38;57.94;99604.09;5092702;28;20163;-65
2022/11/21 00:26:57;;;;;;;8.53;1.70;;;;;;;19.39;58.05;99602.84;5074269;28;20204;-66
2022/11/21 00:29:22;;;;;;;6.40;1.43;;;;;;;19.39;58.18;99594.28;5092044;28;20162;-65
2022/11/21 00:31:48;;;;;;;3.73;1.27;;;;;;;19.39;58.16;99588.53;5097797;28;20165;-66
2022/11/21 00:34:15;;;;;;;6.20;1.40;;;;;;;19.37;58.33;99585.25;5074166;28;20197;-65
2022/11/21 00:36:41;;;;;;;4.80;1.77;;;;;;;19.35;57.73;99581.97;5079578;28;20190;-65
2022/11/21 00:39:06;;;;;;;6.73;1.80;;;;;;;19.35;58.42;99586.88;5057004;28;20486;-66
2022/11/21 00:41:31;;;;;;;6.37;1.50;;;;;;;19.32;58.53;99585.63;5082930;28;20166;-65
2022/11/21 00:43:57;;;;;;;6.17;1.43;;;;;;;19.32;58.65;99577.06;5094312;28;20162;-66
2022/11/21 00:46:22;;;;;;;4.37;1.50;;;;;;;19.33;58.52;99573.00;5113889;28;20203;-65
2022/11/21 00:48:48;;;;;;;6.27;1.70;;;;;;;19.32;58.52;99570.53;5116117;28;20162;-66
2022/11/21 00:51:13;;;;;;;3.30;1.30;;;;;;;19.34;58.62;99580.34;5098042;28;20548;-65
2022/11/21 00:53:39;;;;;;;4.77;1.43;;;;;;;19.33;58.45;99587.31;5080901;28;20222;-66
2022/11/21 00:56:04;;;;;;;4.80;1.67;;;;;;;19.36;58.49;99582.81;5115995;28;20276;-65
2022/11/21 00:58:30;;;;;;;5.00;1.60;;;;;;;19.34;58.76;99586.06;5079201;28;20175;-65
2022/11/21 01:01:06;;;;;;;6.50;1.40;;;;;;;19.33;58.68;99593.03;5057632;28;20189;-66
2022/11/21 01:03:33;;;;;;;3.97;1.40;;;;;;;19.32;58.89;99596.28;5061033;28;20167;-65
2022/11/21 01:06:09;;;;;;;4.37;1.20;;;;;;;19.33;58.83;99589.34;5077492;28;20447;-65
2022/11/21 01:08:35;;;;;;;4.27;1.47;;;;;;;19.29;59.15;99594.22;5077876;28;20830;-65
2022/11/21 01:11:04;;;;;;;3.60;1.60;;;;;;;19.31;58.86;99592.59;5077690;28;20404;-66
2022/11/21 01:13:30;;;;;;;4.37;1.50;;;;;;;19.32;58.92;99597.09;5076828;28;20499;-65
2022/11/21 01:15:55;;;;;;;7.17;1.40;;;;;;;19.33;58.77;99597.91;5077427;28;20408;-65
2022/11/21 01:18:21;;;;;;;4.20;1.50;;;;;;;19.33;59.05;99598.75;5095284;28;20151;-65
2022/11/21 01:20:46;;;;;;;4.33;1.57;;;;;;;19.31;58.81;99592.59;5077308;28;20193;-65
2022/11/21 01:23:11;;;;;;;2.80;1.40;;;;;;;19.28;59.11;99598.31;5095230;28;20159;-65
2022/11/21 01:25:37;;;;;;;2.53;1.20;;;;;;;19.27;59.05;99596.69;5076346;28;20166;-66
2022/11/21 01:28:02;;;;;;;5.17;1.20;;;;;;;19.29;59.04;99597.91;5094811;28;20166;-65
2022/11/21 01:30:28;;;;;;;4.13;1.40;;;;;;;19.30;59.30;99598.72;5076573;28;20241;-66
2022/11/21 01:32:53;;;;;;;4.77;1.40;;;;;;;19.30;59.27;99598.72;5085562;28;20199;-65
2022/11/21 01:35:19;;;;;;;7.13;1.73;;;;;;;19.29;59.23;99597.91;5111327;28;20182;-66
2022/11/21 01:37:48;;;;;;;6.03;1.60;;;;;;;19.28;59.27;99586.88;5094385;28;20175;-65
2022/11/21 01:40:14;;;;;;;4.17;1.40;;;;;;;19.28;59.14;99587.69;5076530;28;20669;-65
2022/11/21 01:42:52;;;;;;;2.80;1.37;;;;;;;19.30;59.12;99578.69;5042977;28;20431;-65
2022/11/21 01:45:55;;;;;;;6.43;1.50;;;;;;;19.28;59.08;99566.81;5094103;28;20408;-65
2022/11/21 01:48:32;;;;;;;3.87;1.50;;;;;;;19.24;59.42;99572.53;5094478;28;20384;-65
2022/11/21 01:51:00;;;;;;;3.20;1.27;;;;;;;19.25;59.32;99565.59;5075538;28;20424;-65
2022/11/21 01:53:25;;;;;;;10.00;2.50;;;;;;;19.25;59.40;99564.75;5058931;28;20464;-65
2022/11/21 01:55:51;;;;;;;5.40;1.57;;;;;;;19.26;59.33;99564.38;5075194;28;20915;-65
2022/11/21 01:58:16;;;;;;;3.27;1.30;;;;;;;19.22;59.56;99554.94;5058593;28;20541;-65
2022/11/21 02:00:41;;;;;;;4.70;1.10;;;;;;;19.21;59.51;99559.00;5093773;28;20665;-65
2022/11/21 02:03:09;;;;;;;3.50;1.30;;;;;;;19.25;59.39;99564.75;5041570;28;20186;-66
2022/11/21 02:05:35;;;;;;;4.40;1.63;;;;;;;19.25;59.97;99559.88;5059120;28;20198;-65
2022/11/21 02:08:06;;;;;;;3.90;1.30;;;;;;;19.26;59.65;99561.50;5058986;28;20405;-66
2022/11/21 02:10:32;;;;;;;3.70;1.10;;;;;;;19.24;59.38;99558.25;5059062;28;20634;-66
2022/11/21 02:12:58;;;;;;;4.97;1.53;;;;;;;19.24;59.39;99551.69;5058801;28;20413;-65
2022/11/21 02:15:25;;;;;;;2.70;1.33;;;;;;;19.21;59.75;99552.47;5058776;28;20405;-65
2022/11/21 02:17:50;;;;;;;2.80;1.30;;;;;;;19.23;59.52;99545.16;5059157;28;20585;-66
2022/11/21 02:20:21;;;;;;;3.63;1.70;;;;;;;19.20;59.54;99540.19;5093519;28;20444;-66
2022/11/21 02:22:52;;;;;;;2.90;1.40;;;;;;;19.19;59.53;99538.56;5093452;28;20212;-65
2022/11/21 02:25:19;;;;;;;3.43;1.17;;;;;;;19.18;59.74;99536.94;5076641;28;20409;-66
2022/11/21 02:27:45;;;;;;;4.70;1.50;;;;;;;19.19;59.74;99527.13;5075605;28;20404;-65
2022/11/21 02:30:11;;;;;;;2.23;1.30;;;;;;;19.22;59.63;99532.03;5075432;28;20397;-65
2022/11/21 02:32:41;;;;;;;4.80;1.60;;;;;;;19.18;59.71;99525.50;5092966;28;20903;-65
2022/11/21 02:35:07;;;;;;;3.37;1.10;;;;;;;19.18;59.80;99531.22;5075452;28;20551;-65
2022/11/21 02:37:34;;;;;;;3.13;1.03;;;;;;;19.19;59.66;99521.41;5094118;28;20397;-66
2022/11/21 02:40:01;;;;;;;2.97;1.50;;;;;;;19.23;59.40;99524.28;5093972;28;20186;-66
2022/11/21 02:42:35;;;;;;;2.47;0.90;;;;;;;19.20;59.73;99531.63;5113422;28;20396;-65
2022/11/21 02:45:08;;;;;;;3.60;1.10;;;;;;;19.18;59.96;99530.38;5075453;28;20411;-66
2022/11/21 02:47:34;;;;;;;3.50;1.17;;;;;;;19.19;59.74;99527.13;5079076;28;20762;-65
2022/11/21 02:50:22;;;;;;;4.97;1.47;;;;;;;19.18;59.78;99521.78;5113578;28;20570;-66
2022/11/21 02:52:48;;;;;;;2.13;1.03;;;;;;;19.17;59.53;99517.31;5077400;28;20910;-66
2022/11/21 02:55:14;;;;;;;5.13;1.50;;;;;;;19.15;59.92;99523.44;5075237;28;20447;-65
2022/11/21 02:57:40;;;;;;;2.10;0.90;;;;;;;19.14;59.93;99523.81;5093149;28;21061;-66
2022/11/21 03:00:06;;;;;;;5.60;1.57;;;;;;;19.15;59.85;99519.72;5058183;28;20452;-65
2022/11/21 03:02:32;;;;;;;5.10;1.67;;;;;;;19.14;59.92;99512.38;5058177;28;20179;-66
2022/11/21 03:04:57;;;;;;;3.87;1.27;;;;;;;19.16;60.01;99521.41;5074162;28;20448;-65
2022/11/21 03:07:22;;;;;;;3.93;1.27;;;;;;;19.18;59.87;99522.63;5072924;28;20460;-66
2022/11/21 03:09:48;;;;;;;6.20;1.37;;;;;;;19.15;59.88;99514.84;5072186;28;20514;-65
2022/11/21 03:12:13;;;;;;;3.67;1.50;;;;;;;19.14;59.80;99510.34;5055038;28;20233;-66
2022/11/21 03:14:39;;;;;;;3.43;1.57;;;;;;;19.18;59.72;99508.31;5054908;28;20225;-66
2022/11/21 03:17:04;;;;;;;3.00;0.90;;;;;;;19.15;59.91;99503.41;5072534;28;20601;-65
2022/11/21 03:19:30;;;;;;;2.63;0.90;;;;;;;19.14;59.94;99501.75;5054381;28;20716;-64
2022/11/21 03:21:55;;;;;;;3.73;1.33;;;;;;;19.13;59.87;99505.03;5072706;28;20163;-63
2022/11/21 03:24:20;;;;;;;1.70;0.90;;;;;;;19.16;60.01;99507.88;5071269;28;20163;-63
2022/11/21 03:26:46;;;;;;;3.80;1.40;;;;;;;19.10;60.17;99500.09;5069581;28;20171;-64
2022/11/21 03:29:11;;;;;;;4.37;1.03;;;;;;;19.10;60.23;99506.66;5072487;28;20209;-63
2022/11/21 03:31:37;;;;;;;6.83;1.30;;;;;;;19.12;60.04;99507.06;5054631;28;20163;-64
2022/11/21 03:34:02;;;;;;;2.53;1.07;;;;;;;19.13;60.01;99510.75;5072613;28;20186;-64
2022/11/21 03:36:28;;;;;;;3.30;1.10;;;;;;;19.09;60.14;99505.00;5054551;28;20911;-64
2022/11/21 03:38:56;;;;;;;3.00;1.53;;;;;;;19.08;60.25;99497.66;5056767;28;20219;-63
2022/11/21 03:41:28;;;;;;;3.33;1.10;;;;;;;19.11;60.10;99496.03;5072484;28;20673;-63
2022/11/21 03:44:23;;;;;;;3.30;1.30;;;;;;;19.10;60.10;99500.94;5072652;28;20734;-64
2022/11/21 03:46:48;;;;;;;3.33;1.00;;;;;;;19.09;60.13;99496.44;5051930;28;20448;-63
2022/11/21 03:49:15;;;;;;;2.33;1.00;;;;;;;19.12;60.13;99494.81;5054101;28;20746;-64
2022/11/21 03:51:41;;;;;;;1.60;0.80;;;;;;;19.10;60.01;99500.94;5054610;28;20171;-63
2022/11/21 03:54:06;;;;;;;3.80;1.10;;;;;;;19.08;60.25;99496.84;5046057;28;20463;-64
2022/11/21 03:56:32;;;;;;;2.03;0.90;;;;;;;19.09;60.04;99502.16;5073519;28;20178;-64
2022/11/21 03:58:57;;;;;;;3.13;1.00;;;;;;;19.12;60.07;99495.59;5056667;28;20185;-63
2022/11/21 04:01:23;;;;;;;2.90;1.30;;;;;;;19.13;60.08;99508.72;5073587;28;20193;-63
2022/11/21 04:03:48;;;;;;;3.50;1.23;;;;;;;19.08;60.28;99511.97;5091956;28;20194;-64
2022/11/21 04:06:15;;;;;;;4.87;1.10;;;;;;;19.10;60.12;99505.81;5073537;28;20190;-63
2022/11/21 04:08:40;;;;;;;5.50;1.23;;;;;;;19.10;60.16;99512.38;5053303;28;20912;-63
2022/11/21 04:11:06;;;;;;;3.77;1.20;;;;;;;19.12;59.99;99511.97;5054671;28;20397;-64
2022/11/21 04:13:31;;;;;;;2.47;1.00;;;;;;;19.09;60.22;99510.75;5054654;28;20182;-63
2022/11/21 04:15:57;;;;;;;2.13;0.80;;;;;;;19.08;60.23;99502.56;5054546;28;20170;-64
2022/11/21 04:18:22;;;;;;;2.50;1.17;;;;;;;19.07;60.48;99504.59;5054745;28;20163;-63
2022/11/21 04:20:47;;;;;;;3.80;1.00;;;;;;;19.06;60.34;99514.41;5082033;28;20246;-63
2022/11/21 04:23:13;;;;;;;1.80;0.83;;;;;;;19.07;60.20;99518.09;5078471;28;20169;-64
2022/11/21 04:25:39;;;;;;;2.97;1.10;;;;;;;19.08;60.25;99511.97;5096059;28;20181;-64
2022/11/21 04:28:05;;;;;;;2.33;0.80;;;;;;;19.11;60.01;99507.47;5061465;28;20173;-64
2022/11/21 04:30:32;;;;;;;3.07;1.10;;;;;;;19.08;60.20;99506.25;5078267;28;20440;-64
2022/11/21 04:32:57;;;;;;;3.10;1.00;;;;;;;19.06;60.26;99511.53;5096538;28;20253;-64
2022/11/21 04:35:23;;;;;;;3.37;1.13;;;;;;;19.05;60.22;99515.63;5096517;28;20459;-63
2022/11/21 04:37:48;;;;;;;2.03;1.03;;;;;;;19.07;60.15;99521.75;5061227;28;20186;-63
2022/11/21 04:40:14;;;;;;;2.73;0.90;;;;;;;19.09;60.28;99512.78;5074623;28;20207;-63
2022/11/21 04:42:40;;;;;;;4.83;1.17;;;;;;;19.08;60.27;99509.09;5058452;28;20164;-63
2022/11/21 04:45:06;;;;;;;2.37;0.90;;;;;;;19.05;60.23;99511.94;5074493;28;20440;-63
2022/11/21 04:47:34;;;;;;;2.47;1.07;;;;;;;19.03;60.39;99512.34;5058593;28;20488;-64
2022/11/21 04:50:00;;;;;;;2.10;1.00;;;;;;;19.06;60.25;99511.53;5053937;28;20159;-64
2022/11/21 04:52:25;;;;;;;2.43;1.00;;;;;;;19.04;60.35;99511.13;5078374;28;20431;-64
2022/11/21 04:54:51;;;;;;;1.97;0.87;;;;;;;19.09;60.53;99522.19;5078015;28;20218;-63
2022/11/21 04:57:16;;;;;;;3.73;0.80;;;;;;;19.06;60.18;99508.66;5077860;28;20166;-63
2022/11/21 04:59:41;;;;;;;2.67;1.10;;;;;;;19.05;60.41;99504.19;5095917;28;20194;-64
2022/11/21 05:02:07;;;;;;;1.90;0.80;;;;;;;19.06;60.36;99517.25;5077914;28;20167;-63
2022/11/21 05:04:32;;;;;;;6.13;1.43;;;;;;;19.07;60.32;99509.50;5080183;28;20250;-64
2022/11/21 05:06:58;;;;;;;2.40;0.93;;;;;;;19.06;60.34;99511.53;5075557;28;20187;-63
2022/11/21 05:09:23;;;;;;;3.77;1.03;;;;;;;19.07;60.03;99518.88;5076055;28;20171;-63
2022/11/21 05:14:33;;;;;;;2.90;1.10;;;;;;;19.06;60.36;99516.44;5075422;28;20571;-63
2022/11/21 05:16:58;;;;;;;2.17;0.90;;;;;;;19.09;60.17;99516.47;5057669;28;20447;-64
2022/11/21 05:19:24;;;;;;;2.30;0.80;;;;;;;19.06;60.40;99510.72;5065786;28;20214;-63
2022/11/21 05:21:49;;;;;;;2.40;0.80;;;;;;;19.06;60.22;99520.13;5037641;28;20176;-63
2022/11/21 05:24:15;;;;;;;2.30;1.00;;;;;;;19.06;60.26;99510.72;5073739;28;20182;-64
2022/11/21 05:26:40;;;;;;;2.20;0.90;;;;;;;19.09;60.44;99516.47;5056960;28;20182;-64
2022/11/21 05:29:06;;;;;;;2.00;1.00;;;;;;;19.07;60.46;99518.09;5057274;28;20178;-64
2022/11/21 05:31:31;;;;;;;2.40;0.73;;;;;;;19.07;60.44;99518.88;5040127;28;20179;-64
2022/11/21 05:33:56;;;;;;;2.40;0.80;;;;;;;19.05;60.32;99509.91;5057428;28;20603;-64
2022/11/21 05:36:22;;;;;;;2.07;0.93;;;;;;;19.06;60.48;99517.25;5074987;28;20252;-64
2022/11/21 05:38:47;;;;;;;1.97;0.90;;;;;;;19.09;60.31;99522.19;5040646;28;20182;-64
2022/11/21 05:41:13;;;;;;;2.50;1.00;;;;;;;19.08;60.27;99519.72;5056716;28;20582;-63
2022/11/21 05:43:48;;;;;;;1.60;0.80;;;;;;;19.12;60.33;99515.63;5056573;28;20187;-64
2022/11/21 05:46:15;;;;;;;1.70;0.80;;;;;;;19.11;60.15;99513.19;5058687;28;20562;-64
2022/11/21 05:48:41;;;;;;;3.23;0.93;;;;;;;19.04;60.35;99511.13;5090369;28;20436;-64
2022/11/21 05:51:06;;;;;;;2.07;0.90;;;;;;;19.07;60.35;99518.88;5060102;28;20416;-64
2022/11/21 05:53:32;;;;;;;2.47;1.00;;;;;;;19.07;60.39;99518.88;5095291;28;20222;-63
2022/11/21 05:56:06;;;;;;;1.83;0.83;;;;;;;19.07;60.38;99518.88;5076817;28;20249;-64
2022/11/21 05:58:31;;;;;;;2.27;1.10;;;;;;;19.09;59.84;99521.34;5075929;28;20424;-64
2022/11/21 06:00:57;;;;;;;2.97;1.20;;;;;;;19.08;60.26;99529.13;5075451;28;20483;-64
2022/11/21 06:03:26;;;;;;;3.20;1.10;;;;;;;19.08;60.22;99526.28;5053467;28;20171;-64
2022/11/21 06:06:12;;;;;;;2.20;0.90;;;;;;;19.09;60.27;99522.19;5056045;28;20609;-64
2022/11/21 06:08:40;;;;;;;2.33;1.00;;;;;;;19.08;60.25;99523.41;5055157;28;20447;-64
2022/11/21 06:11:05;;;;;;;2.80;1.00;;;;;;;19.08;60.14;99514.81;5053247;28;20421;-64
2022/11/21 06:13:32;;;;;;;3.20;0.97;;;;;;;19.11;60.16;99522.59;5055819;28;20496;-64
2022/11/21 06:16:06;;;;;;;3.03;1.00;;;;;;;19.09;60.54;99513.59;5056865;28;20182;-64
2022/11/21 06:18:33;;;;;;;2.67;1.13;;;;;;;19.09;60.23;99516.47;5074572;28;20408;-64
2022/11/21 06:21:06;;;;;;;5.20;0.90;;;;;;;19.10;60.11;99523.81;5056267;28;20536;-63
2022/11/21 06:23:32;;;;;;;1.47;0.70;;;;;;;19.08;60.43;99523.41;5040953;28;20804;-64
2022/11/21 06:25:58;;;;;;;2.03;0.80;;;;;;;19.10;60.40;99520.94;5040157;28;20409;-64
2022/11/21 06:28:34;;;;;;;2.80;1.00;;;;;;;19.10;60.31;99517.25;5058148;28;20179;-64
2022/11/21 06:31:04;;;;;;;1.90;0.80;;;;;;;19.09;60.34;99516.47;5034679;28;20402;-64
2022/11/21 06:33:29;;;;;;;2.00;0.90;;;;;;;19.08;60.32;99508.28;5034390;28;20474;-64
2022/11/21 06:35:55;;;;;;;1.80;0.80;;;;;;;19.11;60.24;99518.94;5042842;28;20433;-64
2022/11/21 06:38:20;;;;;;;2.60;1.10;;;;;;;19.09;60.37;99527.06;5072537;28;20194;-64
2022/11/21 06:40:46;;;;;;;7.30;0.93;;;;;;;19.08;60.26;99526.28;5073049;28;20600;-63
2022/11/21 06:43:11;;;;;;;2.23;0.87;;;;;;;19.11;60.30;99530.38;5072841;28;20640;-64
2022/11/21 06:45:37;;;;;;;3.27;1.03;;;;;;;19.11;60.30;99522.59;5074211;28;20167;-63
2022/11/21 06:48:02;;;;;;;4.07;1.20;;;;;;;19.11;60.39;99519.72;5072722;28;20246;-64
2022/11/21 06:50:30;;;;;;;2.27;0.77;;;;;;;19.10;60.39;99518.09;5074731;28;20187;-63
2022/11/21 06:52:59;;;;;;;1.80;0.97;;;;;;;19.09;60.27;99516.47;5036220;28;20155;-63
2022/11/21 06:55:26;;;;;;;3.00;0.93;;;;;;;19.10;60.29;99520.13;5052681;28;20422;-64
2022/11/21 06:57:58;;;;;;;2.57;0.90;;;;;;;19.11;60.43;99519.72;5036003;28;20413;-63
2022/11/21 07:00:24;;;;;;;1.73;0.77;;;;;;;19.11;60.00;99513.19;5051258;28;20453;-64
2022/11/21 07:02:49;;;;;;;1.87;0.70;;;;;;;19.12;60.06;99518.50;5051063;28;21164;-64
2022/11/21 07:05:15;;;;;;;2.67;1.00;;;;;;;19.10;60.15;99523.81;5073205;28;20441;-64
2022/11/21 07:07:40;;;;;;;2.40;1.10;;;;;;;19.08;60.31;99523.41;5055783;28;20175;-63
2022/11/21 07:10:06;;;;;;;2.47;1.00;;;;;;;19.13;60.13;99523.03;5073843;28;20182;-64
2022/11/21 07:15:17;;;;;;;2.03;0.90;;;;;;;19.08;60.39;99511.13;5058104;28;20783;-64
2022/11/21 07:17:42;;;;;;;2.53;0.77;;;;;;;19.12;60.30;99520.56;5055504;28;20429;-63
2022/11/21 07:20:09;;;;;;;2.47;0.90;;;;;;;19.10;60.22;99508.69;5035632;28;20214;-64
2022/11/21 07:22:34;;;;;;;3.40;1.00;;;;;;;19.06;60.49;99502.94;5044895;28;20187;-63
2022/11/21 07:24:59;;;;;;;1.87;0.80;;;;;;;19.07;60.34;99510.31;5066142;28;20762;-64
2022/11/21 07:27:25;;;;;;;1.80;1.00;;;;;;;19.10;60.36;99495.19;5061569;28;20188;-64
2022/11/21 07:29:50;;;;;;;2.03;0.83;;;;;;;19.14;60.22;99507.47;5058216;28;20231;-64
2022/11/21 07:32:16;;;;;;;2.67;1.07;;;;;;;19.12;60.22;99495.59;5055912;28;20228;-63
2022/11/21 07:34:41;;;;;;;2.00;0.80;;;;;;;19.15;60.44;99496.84;5055727;28;20190;-64
2022/11/21 07:37:07;;;;;;;2.70;1.00;;;;;;;19.14;60.27;99495.22;5053466;28;20207;-64
2022/11/21 07:39:32;;;;;;;1.80;0.90;;;;;;;19.12;60.37;99487.03;5059814;28;20196;-64
2022/11/21 07:41:58;;;;;;;1.90;0.80;;;;;;;19.11;60.19;99496.84;5056516;28;20773;-64
2022/11/21 07:44:23;;;;;;;2.70;0.97;;;;;;;19.13;60.28;99494.41;5038419;28;20992;-63
2022/11/21 07:46:52;;;;;;;2.87;0.90;;;;;;;19.13;60.33;99491.53;5053144;28;20187;-63
2022/11/21 07:49:17;;;;;;;2.33;1.00;;;;;;;19.10;60.29;99489.47;5060212;28;20247;-64
2022/11/21 07:51:43;;;;;;;2.93;1.30;;;;;;;19.12;60.34;99486.22;5036147;28;20434;-64
2022/11/21 07:54:08;;;;;;;2.83;1.20;;;;;;;19.10;60.21;99483.75;5056886;28;20226;-64
2022/11/21 07:56:34;;;;;;;2.27;0.73;;;;;;;19.10;60.47;99482.94;5059101;28;20815;-64
2022/11/21 07:58:59;;;;;;;2.17;0.80;;;;;;;19.11;60.33;99478.88;5080564;28;20798;-64
2022/11/21 08:01:25;;;;;;;2.53;1.10;;;;;;;19.12;60.28;99487.03;5078052;28;20190;-64
2022/11/21 08:03:50;;;;;;;1.77;0.83;;;;;;;19.12;60.18;99484.16;5082335;28;20676;-64
2022/11/21 08:06:16;;;;;;;2.13;1.00;;;;;;;19.13;60.18;99482.13;5066243;28;20613;-63
2022/11/21 08:08:41;;;;;;;3.43;1.00;;;;;;;19.14;60.33;99484.59;5064555;28;20182;-64
2022/11/21 08:11:07;;;;;;;1.77;0.70;;;;;;;19.10;60.41;99478.03;5081282;28;20182;-63
2022/11/21 08:13:33;;;;;;;2.00;0.97;;;;;;;19.09;60.39;99481.28;5067100;28;20179;-63
2022/11/21 08:15:58;;;;;;;2.37;0.90;;;;;;;19.14;60.14;99472.31;5079597;28;20189;-64
2022/11/21 08:18:24;;;;;;;2.40;1.00;;;;;;;19.11;60.36;99471.09;5070466;28;20436;-64
2022/11/21 08:20:49;;;;;;;4.30;1.50;;;;;;;19.12;60.27;99472.72;5070201;28;20202;-63
2022/11/21 08:23:15;;;;;;;1.70;0.90;;;;;;;19.14;60.12;99472.31;5076599;28;20175;-64
2022/11/21 08:25:40;;;;;;;2.60;0.80;;;;;;;19.12;60.45;99463.34;5060294;28;20642;-64
2022/11/21 08:28:06;;;;;;;2.67;1.10;;;;;;;19.12;60.39;99461.28;5078565;28;20532;-64
2022/11/21 08:30:32;;;;;;;2.30;1.20;;;;;;;19.14;60.25;99464.56;5061102;28;20171;-64
2022/11/21 08:32:57;;;;;;;2.00;1.00;;;;;;;19.12;60.34;99454.75;5059086;28;20203;-64
2022/11/21 08:35:24;;;;;;;1.93;0.90;;;;;;;19.14;60.34;99455.16;5060252;28;20182;-64
2022/11/21 08:37:56;;;;;;;1.70;1.00;;;;;;;19.13;60.15;99448.63;5063051;28;20178;-64
2022/11/21 08:40:26;;;;;;;1.77;0.70;;;;;;;19.15;60.21;99446.16;5044910;28;20481;-64
2022/11/21 08:42:58;;;;;;;1.90;0.70;;;;;;;19.18;60.19;99439.66;5075354;28;20436;-64
2022/11/21 08:45:24;;;;;;;2.13;0.80;;;;;;;19.15;60.18;99434.72;5058990;28;20782;-64
2022/11/21 08:47:50;;;;;;;2.00;0.80;;;;;;;19.16;60.17;99424.09;5077403;28;20420;-64
2022/11/21 08:50:16;;;;;;;2.80;1.10;;;;;;;19.14;60.23;99430.22;5049529;28;20434;-64
2022/11/21 08:52:41;;;;;;;2.07;0.70;;;;;;;19.14;60.26;99433.09;5073207;28;20175;-64
2022/11/21 08:55:07;;;;;;;1.83;0.80;;;;;;;19.20;60.39;99430.63;5056047;28;20673;-64
2022/11/21 08:57:39;;;;;;;2.03;0.90;;;;;;;19.16;60.14;99424.09;5078444;28;20273;-64
2022/11/21 09:00:05;;;;;;;2.73;1.07;;;;;;;19.16;60.32;99418.38;5070218;28;20488;-64
2022/11/21 09:02:31;;;;;;;3.27;1.07;;;;;;;19.13;60.13;99419.19;5055871;28;20435;-64
2022/11/21 09:04:56;;;;;;;2.13;1.10;;;;;;;19.17;60.30;99414.28;5056552;28;20449;-64
2022/11/21 09:07:22;;;;;;;3.27;1.00;;;;;;;19.16;60.31;99409.81;5059228;28;20178;-64
2022/11/21 09:09:47;;;;;;;2.53;0.87;;;;;;;19.17;60.13;99411.44;5079081;28;21127;-64
2022/11/21 09:12:13;;;;;;;2.63;0.97;;;;;;;19.17;60.38;99397.94;5048896;28;20182;-64
2022/11/21 09:20:07;;;;;;;2.37;1.07;;;;;;;19.16;60.08;99386.91;5076923;28;20480;-63
2022/11/21 09:22:32;;;;;;;2.70;0.80;;;;;;;19.15;60.34;99380.34;5045475;28;20533;-64
2022/11/21 09:24:58;;;;;;;1.80;0.87;;;;;;;19.14;60.34;99387.31;5078278;28;20175;-64
2022/11/21 09:27:23;;;;;;;3.70;0.90;;;;;;;19.17;60.18;99383.63;5079031;28;20186;-64
2022/11/21 09:29:48;;;;;;;1.40;0.80;;;;;;;19.19;60.35;99384.06;5077686;28;20232;-64
2022/11/21 09:32:14;;;;;;;2.67;1.13;;;;;;;19.19;60.31;99381.19;5059561;28;20597;-64
2022/11/21 09:34:39;;;;;;;2.40;0.73;;;;;;;19.19;60.15;99372.59;5063231;28;20748;-63
2022/11/21 09:37:05;;;;;;;2.80;0.90;;;;;;;19.17;60.27;99369.31;5077279;28;20252;-64
2022/11/21 09:39:30;;;;;;;1.70;0.90;;;;;;;19.17;60.30;99363.59;5059208;28;20198;-64
2022/11/21 09:42:06;;;;;;;1.50;0.80;;;;;;;19.16;60.32;99370.53;5047654;28;20187;-63
2022/11/21 09:45:05;;;;;;;2.50;0.93;;;;;;;19.20;60.23;99377.09;5069605;28;20192;-64
2022/11/21 09:47:40;;;;;;;2.00;0.93;;;;;;;19.20;60.34;99362.78;5076019;28;20475;-64
2022/11/21 09:50:12;;;;;;;1.83;0.97;;;;;;;19.20;60.32;99361.97;5044023;28;20448;-64
2022/11/21 09:52:55;;;;;;;2.17;0.90;;;;;;;19.21;60.15;99350.13;5058668;28;20766;-63
2022/11/21 09:55:33;;;;;;;1.80;0.67;;;;;;;19.21;60.16;99343.59;5058490;28;20849;-64
2022/11/21 09:58:22;;;;;;;2.50;0.70;;;;;;;19.22;60.29;99340.31;5077237;28;20516;-63
2022/11/21 10:00:50;;;;;;;2.50;1.10;;;;;;;19.21;60.27;99335.00;5044377;28;20484;-63
2022/11/21 10:03:16;;;;;;;2.00;0.90;;;;;;;19.21;60.17;99327.22;5075874;28;20397;-63
2022/11/21 10:05:47;;;;;;;1.97;0.73;;;;;;;19.24;60.17;99323.59;5058768;28;20954;-64
2022/11/21 10:08:26;;;;;;;2.77;1.00;;;;;;;19.23;60.26;99321.13;5058128;28;20187;-64
2022/11/21 10:11:11;;;;;;;2.03;0.80;;;;;;;19.26;60.19;99315.41;5060135;28;20429;-63
2022/11/21 10:14:01;;;;;;;2.07;0.90;;;;;;;19.23;60.32;99304.78;5074278;28;20416;-63
2022/11/21 10:16:42;;;;;;;2.47;1.00;;;;;;;19.23;60.23;99299.06;5057298;28;20485;-63
2022/11/21 10:19:17;;;;;;;1.63;0.80;;;;;;;19.21;60.28;99309.25;5060815;28;21047;-64
2022/11/21 10:22:14;;;;;;;2.80;1.00;;;;;;;19.25;60.17;99302.31;5059530;28;20429;-63
2022/11/21 10:24:46;;;;;;;2.80;1.00;;;;;;;19.21;60.35;99301.47;5062830;28;20408;-64
2022/11/21 10:27:40;;;;;;;2.30;1.00;;;;;;;19.27;60.09;99293.34;5062157;28;20748;-64
2022/11/21 10:30:12;;;;;;;1.70;0.70;;;;;;;19.24;60.10;99286.38;5056101;28;20449;-63
2022/11/21 10:32:45;;;;;;;1.80;0.70;;;;;;;19.19;60.17;99272.47;5057918;28;20457;-64
2022/11/21 10:35:19;;;;;;;2.07;0.80;;;;;;;19.20;60.39;99265.50;5041867;28;20493;-64
2022/11/21 10:38:34;;;;;;;2.70;1.10;;;;;;;19.25;60.23;99265.13;5050605;28;20736;-64
2022/11/21 10:41:02;;;;;;;2.10;0.90;;;;;;;19.19;60.51;99261.00;5044945;28;20480;-64
2022/11/21 10:46:25;;;;;;;1.70;0.70;;;;;;;19.23;60.41;99241.84;5073616;28;20419;-64
2022/11/21 10:49:01;;;;;;;1.97;0.83;;;;;;;19.27;60.31;99231.16;5075724;28;20428;-63
2022/11/21 10:51:48;;;;;;;2.90;1.00;;;;;;;19.26;60.35;99229.53;5073193;28;21093;-64
2022/11/21 10:54:32;;;;;;;2.30;0.90;;;;;;;19.26;60.20;99229.53;5074071;28;20472;-63
2022/11/21 10:57:15;;;;;;;1.60;0.60;;;;;;;19.32;60.05;99218.50;5076104;28;20447;-64
2022/11/21 10:59:40;;;;;;;2.70;0.87;;;;;;;19.26;60.29;99217.31;5057034;28;20467;-63
2022/11/21 11:02:12;;;;;;;1.60;0.60;;;;;;;19.27;60.25;99207.47;5041701;28;20425;-64
2022/11/21 11:04:37;;;;;;;1.60;0.80;;;;;;;19.31;60.34;99202.56;5075212;28;20702;-63
2022/11/21 11:07:32;;;;;;;2.00;0.93;;;;;;;19.28;60.33;99192.75;5076236;28;20431;-64
2022/11/21 11:10:14;;;;;;;2.17;0.90;;;;;;;19.31;60.29;99206.22;5039154;28;20240;-63
2022/11/21 11:15:24;;;;;;;2.50;0.73;;;;;;;19.33;60.32;99189.47;5060345;28;20487;-64
2022/11/21 11:17:57;;;;;;;1.60;0.77;;;;;;;19.31;60.32;99197.66;5062257;28;20428;-64
2022/11/21 11:20:36;;;;;;;2.40;0.97;;;;;;;19.32;60.07;99190.69;5057362;28;20449;-64
2022/11/21 11:23:19;;;;;;;1.90;0.90;;;;;;;19.31;60.34;99177.63;5075299;28;20427;-64
2022/11/21 11:25:57;;;;;;;2.30;0.97;;;;;;;19.29;60.35;99176.41;5078149;28;20467;-64
2022/11/21 11:28:24;;;;;;;2.87;0.80;;;;;;;19.30;60.37;99172.28;5055494;28;20427;-64
2022/11/21 11:30:50;;;;;;;2.40;0.90;;;;;;;19.26;60.29;99160.88;5058738;28;20508;-64
2022/11/21 11:33:38;;;;;;;1.50;0.60;;;;;;;19.30;60.31;99155.13;5055688;28;20427;-64
2022/11/21 11:36:13;;;;;;;1.43;0.70;;;;;;;19.26;60.42;99160.88;5065937;28;20763;-64
2022/11/21 11:38:47;;;;;;;1.63;0.63;;;;;;;19.29;60.41;99157.19;5077252;28;20435;-64
2022/11/21 11:47:29;;;;;;;4.63;1.00;;;;;;;19.27;60.39;99147.38;5064753;28;20456;-64
2022/11/21 11:47:58;;;;;;;1.50;0.60;;;;;;;19.29;60.41;99136.34;5079374;28;20475;-64
2022/11/21 11:50:38;;;;;;;3.47;0.93;;;;;;;19.29;60.34;99125.72;5062507;28;20420;-63
2022/11/21 11:53:19;;;;;;;2.13;0.83;;;;;;;19.26;60.30;99120.81;5075469;28;20456;-64
2022/11/21 11:56:01;;;;;;;1.77;0.87;;;;;;;19.24;60.47;99111.84;5060405;28;20786;-63
2022/11/21 11:58:59;;;;;;;2.10;0.90;;;;;;;19.27;60.70;99093.03;5058657;28;20444;-64
2022/11/21 12:01:51;;;;;;;2.00;0.80;;;;;;;19.31;60.39;99079.50;5064245;28;20440;-64